This is the latest recevied weather packets stored in our database for station/object KB1RMA-4. If no packets are shown the sender has not sent any weather packets the latest 1 day(s).
| Time | Temp. | Humidity | Pressure | Rain* | Wind** | Luminosity | Snow |
|---|---|---|---|---|---|---|---|
| 1778088896 | 23.89° C | 51% | 1007.1 hPa | 0 mm | - | 462 W/m² | - |
| 1778087986 | 22.22° C | 55% | 1007.2 hPa | 0 mm | - | 324 W/m² | - |
| 1778087078 | 21.67° C | 56% | 1007.6 hPa | 0 mm | - | 273 W/m² | - |
| 1778085566 | 21.67° C | 56% | 1007.7 hPa | 0 mm | - | 199 W/m² | - |
| 1778084659 | 22.78° C | 53% | 1008 hPa | 0 mm | - | 206 W/m² | - |
| 1778084356 | 22.78° C | 52% | 1007.9 hPa | 0 mm | - | 210 W/m² | - |
| 1778083448 | 22.78° C | 52% | 1008.4 hPa | 0 mm | - | 210 W/m² | - |
| 1778081417 | 22.78° C | 54% | 1009 hPa | 0 mm | - | 216 W/m² | - |
| 1778080812 | 22.78° C | 54% | 1009 hPa | 0 mm | - | 317 W/m² | - |
| 1778080509 | 22.78° C | 54% | 1009 hPa | 0 mm | - | 394 W/m² | - |
| 1778078690 | 22.22° C | 54% | 1009.1 hPa | 0 mm | - | 345 W/m² | - |
| 1778077481 | 21.67° C | 58% | 1009 hPa | 0 mm | - | 511 W/m² | - |
| 1778076575 | 21.11° C | 59% | 1008.7 hPa | 0 mm | - | 423 W/m² | - |
| 1778076271 | 20.56° C | 59% | 1008.9 hPa | 0 mm | - | 297 W/m² | - |
| 1778075968 | 20.56° C | 60% | 1009.3 hPa | 0 mm | - | 309 W/m² | - |
| 1778074755 | 20° C | 61% | 1009.5 hPa | 0 mm | - | 251 W/m² | - |
| 1778073239 | 19.44° C | 63% | 1009.5 hPa | 0 mm | - | 194 W/m² | - |
| 1778072029 | 19.44° C | 63% | 1009.5 hPa | 0 mm | - | 305 W/m² | - |
| 1778071727 | 18.89° C | 65% | 1009.5 hPa | 0 mm | - | 271 W/m² | - |
| 1778069608 | 17.78° C | 67% | 1009.5 hPa | 0 mm | - | 177 W/m² | - |
| 1778069003 | 17.78° C | 67% | 1009.6 hPa | 0 mm | - | 104 W/m² | - |
| 1778068096 | 17.78° C | 68% | 1009.7 hPa | 0 mm | - | 120 W/m² | - |
| 1778067492 | 17.22° C | 68% | 1010 hPa | 0 mm | - | 88 W/m² | - |
| 1778066583 | 17.22° C | 69% | 1009.9 hPa | 0 mm | - | 122 W/m² | - |
| 1778066280 | 17.22° C | 69% | 1009.9 hPa | 0 mm | - | 118 W/m² | - |
* Rain latest hour (hover to see other rain measurements)
** Current wind speed in m/s (hover to see current wind gust speed)